createdAt,value
2023-02-18T00:01:36.987Z,52.85
2023-02-18T00:04:04.514Z,52.54
2023-02-18T00:06:35.018Z,52.59
2023-02-18T00:09:03.115Z,52.59
2023-02-18T00:11:32.442Z,52.08
2023-02-18T00:14:02.445Z,52.00
2023-02-18T00:16:30.783Z,51.58
2023-02-18T00:18:59.613Z,53.92
2023-02-18T00:21:29.682Z,58.53
2023-02-18T00:23:58.285Z,59.74
2023-02-18T00:26:25.748Z,57.64
2023-02-18T00:28:53.413Z,58.30
2023-02-18T00:31:24.397Z,57.30
2023-02-18T00:33:59.477Z,60.41
2023-02-18T00:36:27.755Z,58.72
2023-02-18T00:38:56.942Z,58.01
2023-02-18T00:41:27.079Z,58.20
2023-02-18T00:43:54.825Z,58.08
2023-02-18T00:46:24.218Z,56.81
2023-02-18T00:48:52.472Z,61.25
2023-02-18T00:51:20.070Z,64.81
2023-02-18T00:53:47.527Z,64.52
2023-02-18T00:56:14.653Z,60.46
2023-02-18T00:58:41.712Z,59.33
2023-02-18T01:01:10.423Z,58.99
2023-02-18T01:03:38.966Z,59.53
2023-02-18T01:06:08.887Z,60.95
2023-02-18T01:08:55.602Z,63.51
2023-02-18T01:11:23.484Z,62.93
2023-02-18T01:13:50.514Z,62.95
2023-02-18T01:16:17.644Z,60.83
2023-02-18T01:18:45.320Z,60.57
2023-02-18T01:21:12.923Z,61.04
2023-02-18T01:23:41.771Z,61.07
2023-02-18T01:26:10.612Z,60.71
2023-02-18T01:28:38.309Z,61.48
2023-02-18T01:31:10.528Z,62.57
2023-02-18T01:33:38.328Z,64.93
2023-02-18T01:36:07.123Z,63.82
2023-02-18T01:38:34.806Z,63.30
2023-02-18T01:41:02.380Z,66.00
2023-02-18T01:43:29.589Z,64.00
2023-02-18T01:46:13.888Z,65.23
2023-02-18T01:48:58.925Z,63.17
2023-02-18T01:51:32.457Z,73.91
2023-02-18T01:54:06.945Z,70.09
2023-02-18T01:56:48.994Z,68.13
2023-02-18T01:59:25.985Z,67.04
2023-02-18T02:01:54.466Z,65.14
2023-02-18T02:04:22.144Z,68.47
2023-02-18T02:06:49.205Z,71.25
2023-02-18T02:09:19.242Z,68.82
2023-02-18T02:12:17.935Z,66.45
2023-02-18T02:15:02.011Z,67.86
2023-02-18T02:18:16.385Z,72.70
2023-02-18T02:21:22.261Z,76.80
2023-02-18T02:24:17.773Z,76.29
2023-02-18T02:27:14.867Z,77.36
2023-02-18T02:30:31.222Z,82.15
2023-02-18T02:33:37.601Z,79.93
2023-02-18T02:36:35.974Z,75.32
2023-02-18T02:39:21.252Z,73.84
2023-02-18T02:42:19.771Z,75.55
2023-02-18T02:44:57.566Z,73.76
2023-02-18T02:47:38.703Z,72.93
2023-02-18T02:50:21.825Z,72.58
2023-02-18T02:52:53.808Z,78.08
2023-02-18T02:55:21.007Z,78.54
2023-02-18T02:57:53.816Z,79.03
2023-02-18T03:00:32.640Z,76.59
2023-02-18T03:03:27.437Z,77.20
2023-02-18T03:06:21.346Z,76.76
2023-02-18T03:09:32.500Z,78.92
2023-02-18T03:12:05.022Z,79.00
2023-02-18T03:15:05.338Z,75.96
2023-02-18T03:17:38.382Z,76.06
2023-02-18T03:20:21.911Z,78.33
2023-02-18T03:22:51.417Z,79.04
2023-02-18T03:25:19.237Z,76.44
2023-02-18T03:28:09.661Z,76.67
2023-02-18T03:30:49.077Z,75.08
2023-02-18T03:33:20.649Z,74.13
2023-02-18T03:35:49.295Z,75.20
2023-02-18T03:38:27.290Z,76.45
2023-02-18T03:40:54.520Z,73.31
2023-02-18T03:43:21.562Z,74.57
2023-02-18T03:46:14.356Z,77.46
2023-02-18T03:48:50.418Z,79.46
2023-02-18T03:51:40.876Z,77.29
2023-02-18T03:54:13.833Z,77.12
2023-02-18T03:56:44.100Z,74.84
2023-02-18T03:59:29.602Z,77.88
2023-02-18T04:02:09.866Z,76.12
2023-02-18T04:04:58.430Z,81.25
2023-02-18T04:07:53.913Z,76.43
2023-02-18T04:11:33.007Z,77.07
2023-02-18T04:13:37.199Z,75.36
2023-02-18T04:16:05.195Z,77.68
2023-02-18T04:18:34.026Z,75.64
2023-02-18T04:21:01.777Z,77.91
2023-02-18T04:23:28.854Z,77.28
2023-02-18T04:25:55.988Z,76.46
2023-02-18T04:28:26.414Z,74.36
2023-02-18T04:30:53.690Z,73.18
2023-02-18T04:33:21.138Z,76.64
2023-02-18T04:35:48.444Z,75.58
2023-02-18T04:38:16.503Z,72.29
2023-02-18T04:40:43.754Z,74.67
2023-02-18T04:43:10.868Z,71.59
2023-02-18T04:46:11.587Z,70.89
2023-02-18T04:52:58.396Z,70.69
2023-02-18T04:55:43.380Z,69.03
2023-02-18T05:05:45.022Z,67.09
2023-02-18T05:08:12.381Z,66.25
2023-02-18T05:10:39.735Z,65.48
2023-02-18T05:13:06.805Z,65.08
2023-02-18T05:15:33.914Z,65.36
2023-02-18T05:18:01.164Z,64.92
2023-02-18T05:20:28.618Z,66.06
2023-02-18T05:22:55.747Z,66.01
2023-02-18T05:25:22.786Z,67.75
2023-02-18T05:27:49.688Z,66.63
2023-02-18T05:30:16.844Z,66.00
2023-02-18T05:32:43.797Z,65.70
2023-02-18T05:35:10.948Z,65.12
2023-02-18T05:37:38.136Z,65.06
2023-02-18T05:40:06.053Z,65.42
2023-02-18T05:42:33.364Z,67.35
2023-02-18T05:45:00.347Z,66.89
2023-02-18T05:47:27.362Z,66.50
2023-02-18T05:49:56.187Z,67.18
2023-02-18T05:52:23.380Z,68.98
2023-02-18T05:54:50.386Z,68.91
2023-02-18T05:57:17.332Z,68.27
2023-02-18T05:59:44.357Z,68.92
2023-02-18T06:02:11.406Z,68.32
2023-02-18T06:04:39.538Z,71.42
2023-02-18T06:07:07.000Z,72.60
2023-02-18T06:09:33.924Z,69.58
2023-02-18T06:12:00.914Z,74.73
2023-02-18T06:14:27.987Z,74.53
2023-02-18T06:16:55.004Z,71.50
2023-02-18T06:19:21.924Z,70.62
2023-02-18T06:21:48.898Z,70.70
2023-02-18T06:24:15.875Z,71.46
2023-02-18T06:26:42.762Z,71.29
2023-02-18T06:29:09.743Z,70.63
2023-02-18T06:31:36.807Z,71.27
2023-02-18T06:34:03.832Z,73.46
2023-02-18T06:36:30.960Z,75.54
2023-02-18T06:38:59.460Z,72.63
2023-02-18T06:41:26.368Z,72.58
2023-02-18T07:01:30.928Z,70.92
2023-02-18T07:04:22.497Z,73.26
2023-02-18T07:06:49.553Z,71.25
2023-02-18T07:09:16.560Z,70.13
2023-02-18T07:12:29.297Z,73.53
2023-02-18T07:28:49.100Z,74.83
2023-02-18T07:31:14.945Z,72.40
2023-02-18T07:33:42.086Z,72.32
2023-02-18T07:36:09.985Z,71.17
2023-02-18T07:38:37.768Z,71.42
2023-02-18T07:41:05.170Z,72.32
2023-02-18T07:43:32.496Z,75.16
2023-02-18T08:00:47.258Z,72.47
2023-02-18T08:03:30.575Z,73.14
2023-02-18T08:09:04.497Z,72.62
2023-02-18T08:11:32.639Z,70.66
2023-02-18T08:14:00.144Z,70.80
2023-02-18T08:16:27.827Z,70.80
2023-02-18T08:18:55.072Z,70.18
2023-02-18T08:21:24.274Z,70.24
2023-02-18T08:23:51.863Z,69.97
2023-02-18T08:26:19.403Z,68.77
2023-02-18T08:28:47.820Z,67.67
2023-02-18T08:31:23.100Z,67.28
2023-02-18T08:33:50.674Z,66.91
2023-02-18T08:36:17.923Z,66.39
2023-02-18T08:38:45.122Z,66.99
2023-02-18T08:41:14.820Z,64.30
2023-02-18T08:43:43.240Z,64.39
2023-02-18T08:46:15.788Z,64.89
2023-02-18T08:48:44.898Z,64.03
2023-02-18T08:51:18.015Z,67.34
2023-02-18T08:53:47.078Z,68.22
2023-02-18T08:56:15.649Z,67.50
2023-02-18T08:58:43.107Z,65.32
2023-02-18T09:01:12.484Z,67.99
2023-02-18T09:03:40.353Z,64.86
2023-02-18T09:06:08.436Z,66.89
2023-02-18T09:08:35.716Z,64.98
2023-02-18T09:11:04.955Z,69.88
2023-02-18T09:13:33.889Z,69.16
2023-02-18T09:16:04.812Z,71.73
2023-02-18T09:18:33.023Z,68.06
2023-02-18T09:21:01.239Z,66.73
2023-02-18T09:23:30.505Z,69.21
2023-02-18T09:25:58.452Z,70.20
2023-02-18T09:28:26.836Z,66.12
2023-02-18T09:30:54.138Z,64.28
2023-02-18T09:33:21.332Z,60.80
2023-02-18T09:35:48.421Z,60.91
2023-02-18T09:38:17.706Z,59.62
2023-02-18T09:40:52.401Z,62.38
2023-02-18T09:43:24.473Z,59.63
2023-02-18T09:45:53.974Z,57.50
2023-02-18T09:48:27.120Z,56.34
2023-02-18T09:50:54.537Z,53.32
2023-02-18T09:53:23.249Z,50.83
2023-02-18T09:55:53.632Z,49.65
2023-02-18T09:58:25.250Z,48.84
2023-02-18T10:01:08.056Z,47.35
2023-02-18T10:03:35.196Z,46.02
2023-02-18T10:06:18.312Z,45.43
2023-02-18T10:08:48.351Z,45.80
2023-02-18T10:11:22.321Z,44.93
2023-02-18T10:13:50.248Z,44.80
2023-02-18T10:16:19.394Z,44.82
2023-02-18T10:18:51.016Z,43.63
2023-02-18T10:21:33.312Z,44.01
2023-02-18T10:24:33.739Z,42.55
2023-02-18T10:27:04.171Z,43.06
2023-02-18T10:29:32.501Z,42.23
2023-02-18T10:32:20.580Z,42.66
2023-02-18T10:35:22.068Z,42.94
2023-02-18T10:38:32.982Z,41.77
2023-02-18T10:41:37.912Z,40.50
2023-02-18T10:44:30.508Z,39.53
2023-02-18T10:47:34.824Z,40.28
2023-02-18T10:50:34.768Z,38.98
2023-02-18T10:53:22.392Z,39.75
2023-02-18T10:55:50.216Z,40.01
2023-02-18T10:58:37.425Z,41.28
2023-02-18T11:01:21.165Z,41.23
2023-02-18T11:03:53.287Z,42.22
2023-02-18T11:06:48.818Z,42.52
2023-02-18T11:09:35.976Z,42.04
2023-02-18T11:12:17.999Z,41.26
2023-02-18T11:14:52.355Z,41.27
2023-02-18T11:17:26.333Z,40.18
2023-02-18T11:19:57.321Z,40.58
2023-02-18T11:22:31.881Z,42.62
2023-02-18T11:25:04.771Z,41.91
2023-02-18T11:27:50.528Z,42.31
2023-02-18T11:30:43.748Z,43.32
2023-02-18T11:33:23.877Z,41.75
2023-02-18T11:35:53.663Z,42.12
2023-02-18T11:38:29.258Z,42.07
2023-02-18T11:41:11.039Z,41.46
2023-02-18T11:43:43.910Z,41.27
2023-02-18T11:46:20.471Z,41.09
2023-02-18T11:48:49.038Z,40.63
2023-02-18T11:51:37.160Z,40.67
2023-02-18T11:54:22.786Z,40.68
2023-02-18T11:57:02.978Z,40.53
2023-02-18T11:59:35.768Z,40.99
2023-02-18T12:02:11.935Z,41.06
2023-02-18T12:04:56.826Z,40.27
2023-02-18T12:07:32.625Z,40.69
2023-02-18T12:10:05.727Z,42.58
2023-02-18T12:12:41.805Z,41.95
2023-02-18T12:15:17.896Z,41.98
2023-02-18T12:18:20.066Z,41.90
2023-02-18T12:21:19.788Z,40.25
2023-02-18T12:23:58.266Z,41.32
2023-02-18T12:26:58.386Z,41.04
2023-02-18T12:30:18.866Z,40.66
2023-02-18T12:32:58.624Z,41.66
2023-02-18T12:36:10.991Z,41.81
2023-02-18T12:38:49.416Z,41.78
2023-02-18T12:41:16.470Z,41.55
2023-02-18T12:47:24.114Z,42.65
2023-02-18T12:50:40.681Z,41.52
2023-02-18T12:53:44.872Z,41.75
2023-02-18T12:56:45.597Z,42.34
2023-02-18T13:00:09.893Z,43.17
2023-02-18T13:03:23.471Z,42.57
2023-02-18T13:05:48.635Z,43.27
2023-02-18T13:08:21.645Z,42.94
2023-02-18T13:10:53.326Z,42.78
2023-02-18T13:13:32.002Z,42.68
2023-02-18T13:16:15.028Z,42.40
2023-02-18T13:19:00.473Z,42.28
2023-02-18T13:21:32.034Z,42.10
2023-02-18T13:24:12.735Z,42.23
2023-02-18T13:26:43.713Z,41.96
2023-02-18T13:29:31.522Z,41.19
2023-02-18T13:32:11.575Z,42.23
2023-02-18T13:34:55.059Z,46.03
2023-02-18T13:37:41.558Z,46.34
2023-02-18T13:40:30.466Z,49.29
2023-02-18T13:43:38.718Z,48.32
2023-02-18T13:46:19.264Z,50.02
2023-02-18T13:49:04.868Z,49.52
2023-02-18T13:51:46.640Z,50.86
2023-02-18T13:54:17.214Z,49.09
2023-02-18T13:57:07.470Z,48.46
2023-02-18T13:59:49.503Z,48.98
2023-02-18T14:02:26.583Z,48.62
2023-02-18T14:05:09.492Z,48.23
2023-02-18T14:07:36.731Z,47.17
2023-02-18T14:10:27.700Z,46.84
2023-02-18T14:12:57.640Z,46.50
2023-02-18T14:15:24.589Z,46.16
2023-02-18T14:18:13.706Z,45.79
2023-02-18T14:20:40.619Z,45.49
2023-02-18T14:23:19.887Z,45.75
2023-02-18T14:25:51.838Z,45.74
2023-02-18T14:28:34.370Z,45.73
2023-02-18T14:31:07.338Z,45.10
2023-02-18T14:33:37.044Z,45.62
2023-02-18T14:36:53.010Z,45.22
2023-02-18T14:39:53.161Z,44.70
2023-02-18T14:42:56.607Z,45.04
2023-02-18T14:46:03.991Z,45.25
2023-02-18T14:48:50.616Z,46.24
2023-02-18T14:51:23.025Z,46.72
2023-02-18T14:53:50.504Z,46.61
2023-02-18T14:56:20.978Z,46.99
2023-02-18T14:58:52.885Z,48.89
2023-02-18T15:01:31.362Z,48.32
2023-02-18T15:03:59.211Z,48.05
2023-02-18T15:06:31.873Z,48.27
2023-02-18T15:09:13.562Z,48.93
2023-02-18T15:11:46.180Z,51.55
2023-02-18T15:14:24.608Z,50.61
2023-02-18T15:16:52.417Z,49.86
2023-02-18T15:19:23.015Z,49.66
2023-02-18T15:21:51.640Z,49.06
2023-02-18T15:24:38.761Z,48.83
2023-02-18T15:27:22.009Z,48.56
2023-02-18T15:29:57.954Z,48.49
2023-02-18T15:32:29.126Z,51.46
2023-02-18T15:35:01.981Z,52.60
2023-02-18T15:37:30.883Z,50.46
2023-02-18T15:39:58.447Z,50.40
2023-02-18T15:42:27.766Z,50.65
2023-02-18T15:45:20.089Z,50.77
2023-02-18T15:47:51.890Z,51.13
2023-02-18T15:50:32.305Z,50.17
2023-02-18T15:53:05.603Z,50.29
2023-02-18T15:55:34.598Z,50.30
2023-02-18T15:58:04.885Z,50.18
2023-02-18T16:00:48.828Z,50.16
2023-02-18T16:03:17.789Z,50.92
2023-02-18T16:05:47.620Z,50.55
2023-02-18T16:08:33.015Z,51.09
2023-02-18T16:11:05.805Z,51.26
2023-02-18T16:13:34.816Z,51.38
2023-02-18T16:16:02.275Z,51.44
2023-02-18T16:18:40.888Z,52.91
2023-02-18T16:21:25.791Z,52.19
2023-02-18T16:24:00.369Z,54.20
2023-02-18T16:26:39.271Z,60.39
2023-02-18T16:29:14.113Z,60.39
2023-02-18T16:31:41.736Z,58.25
2023-02-18T16:34:09.207Z,60.71
2023-02-18T16:36:36.646Z,59.00
2023-02-18T16:39:04.374Z,58.60
2023-02-18T16:41:31.420Z,62.67
2023-02-18T16:43:58.484Z,60.92
2023-02-18T16:46:26.024Z,60.25
2023-02-18T16:48:56.888Z,58.26
2023-02-18T16:51:44.399Z,60.36
2023-02-18T16:54:15.260Z,62.18
2023-02-18T16:56:43.110Z,61.24
2023-02-18T16:59:10.551Z,63.61
2023-02-18T17:01:41.750Z,60.97
2023-02-18T17:04:13.248Z,61.25
2023-02-18T17:06:40.168Z,63.66
2023-02-18T17:09:18.843Z,61.99
2023-02-18T17:11:47.502Z,60.29
2023-02-18T17:14:34.429Z,58.55
2023-02-18T17:17:01.876Z,58.90
2023-02-18T17:19:28.959Z,58.41
2023-02-18T17:21:56.141Z,57.90
2023-02-18T17:24:23.549Z,58.58
2023-02-18T17:26:50.508Z,60.86
2023-02-18T17:29:17.599Z,62.14
2023-02-18T17:31:47.607Z,61.54
2023-02-18T17:34:18.859Z,60.22
2023-02-18T17:36:45.908Z,61.44
2023-02-18T17:39:15.126Z,60.30
2023-02-18T17:41:42.763Z,58.59
2023-02-18T17:44:21.450Z,58.97
2023-02-18T17:46:52.548Z,63.21
2023-02-18T17:49:19.686Z,61.02
2023-02-18T17:51:46.781Z,59.57
2023-02-18T17:54:16.387Z,58.92
2023-02-18T17:56:43.730Z,58.52
2023-02-18T17:59:11.197Z,58.73
2023-02-18T18:01:38.825Z,58.59
2023-02-18T18:04:13.183Z,59.38
2023-02-18T18:06:47.060Z,59.46
2023-02-18T18:09:14.577Z,61.34
2023-02-18T18:11:41.969Z,60.74
2023-02-18T18:14:29.043Z,58.90
2023-02-18T18:17:03.003Z,60.33
2023-02-18T18:19:30.560Z,59.49
2023-02-18T18:21:57.450Z,59.78
2023-02-18T18:24:24.627Z,59.89
2023-02-18T18:26:51.576Z,60.39
2023-02-18T18:29:18.650Z,61.45
2023-02-18T18:31:45.889Z,61.72
2023-02-18T18:34:16.828Z,61.61
2023-02-18T18:36:44.453Z,61.94
2023-02-18T18:39:12.571Z,61.57
2023-02-18T18:41:40.193Z,60.71
2023-02-18T18:44:07.795Z,60.97
2023-02-18T18:46:35.074Z,60.99
2023-02-18T18:49:02.647Z,60.29
2023-02-18T18:51:31.244Z,59.46
2023-02-18T18:54:18.388Z,60.16
2023-02-18T18:56:50.973Z,60.63
2023-02-18T18:59:22.266Z,59.93
2023-02-18T19:01:49.657Z,60.85
2023-02-18T19:04:17.383Z,60.96
2023-02-18T19:06:44.763Z,64.15
2023-02-18T19:09:12.821Z,61.04
2023-02-18T19:11:40.258Z,60.03
2023-02-18T19:14:08.731Z,60.76
2023-02-18T19:16:38.592Z,60.22
2023-02-18T19:19:05.542Z,59.42
2023-02-18T19:21:33.690Z,60.00
2023-02-18T19:24:00.521Z,61.32
2023-02-18T19:26:29.559Z,66.16
2023-02-18T19:28:56.497Z,68.02
2023-02-18T19:31:33.563Z,69.11
2023-02-18T19:34:00.690Z,65.26
2023-02-18T19:36:30.829Z,67.11
2023-02-18T19:38:58.219Z,68.01
2023-02-18T19:41:25.140Z,67.97
2023-02-18T19:43:53.077Z,65.93
2023-02-18T19:46:20.111Z,63.48
2023-02-18T19:48:52.566Z,64.67
2023-02-18T19:51:21.596Z,63.81
2023-02-18T19:54:08.508Z,63.59
2023-02-18T19:56:35.894Z,63.80
2023-02-18T19:59:02.812Z,63.24
2023-02-18T20:01:29.796Z,62.98
2023-02-18T20:04:01.100Z,64.22
2023-02-18T20:06:29.266Z,65.52
2023-02-18T20:08:56.695Z,67.10
2023-02-18T20:11:24.017Z,66.42
2023-02-18T20:13:55.317Z,64.89
2023-02-18T20:16:22.452Z,65.80
2023-02-18T20:18:49.391Z,65.63
2023-02-18T20:21:16.558Z,65.51
2023-02-18T20:23:43.949Z,65.23
2023-02-18T20:26:13.037Z,66.46
2023-02-18T20:28:40.300Z,65.11
2023-02-18T20:31:10.097Z,65.21
2023-02-18T20:33:38.297Z,64.93
2023-02-18T20:36:08.666Z,64.85
2023-02-18T20:38:39.278Z,64.35
2023-02-18T20:41:08.077Z,64.33
2023-02-18T20:43:35.182Z,64.20
2023-02-18T20:46:07.769Z,69.27
2023-02-18T20:48:36.288Z,66.93
2023-02-18T20:51:09.908Z,67.06
2023-02-18T20:53:38.458Z,67.67
2023-02-18T20:56:06.024Z,67.76
2023-02-18T20:58:34.045Z,68.08
2023-02-18T21:01:07.582Z,67.12
2023-02-18T21:03:35.716Z,67.27
2023-02-18T21:06:05.696Z,74.03
2023-02-18T21:08:34.195Z,70.46
2023-02-18T21:11:06.664Z,69.03
2023-02-18T21:13:33.754Z,68.35
2023-02-18T21:16:02.818Z,68.03
2023-02-18T21:18:29.960Z,68.61
2023-02-18T21:20:57.019Z,74.47
2023-02-18T21:23:24.021Z,74.65
2023-02-18T21:25:50.952Z,71.79
2023-02-18T21:28:18.201Z,70.71
2023-02-18T21:30:46.108Z,70.10
2023-02-18T21:33:13.615Z,69.73
2023-02-18T21:35:41.751Z,70.38
2023-02-18T21:38:08.770Z,70.06
2023-02-18T21:40:36.819Z,69.05
2023-02-18T21:43:03.839Z,69.78
2023-02-18T21:45:31.012Z,72.05
2023-02-18T21:48:17.951Z,71.42
2023-02-18T21:50:45.111Z,70.51
2023-02-18T21:53:12.191Z,69.46
2023-02-18T21:55:39.783Z,74.00
2023-02-18T21:58:07.684Z,72.15
2023-02-18T22:00:35.562Z,75.88
2023-02-18T22:03:03.193Z,73.70
2023-02-18T22:05:31.443Z,72.70
2023-02-18T22:07:58.434Z,72.63
2023-02-18T22:10:25.703Z,71.50
2023-02-18T22:12:53.152Z,73.40
2023-02-18T22:15:20.138Z,75.74
2023-02-18T22:17:47.144Z,72.58
2023-02-18T22:20:14.585Z,83.81
2023-02-18T22:22:41.560Z,90.64
2023-02-18T22:25:12.807Z,89.67
2023-02-18T22:27:39.845Z,84.42
2023-02-18T22:30:07.585Z,81.90
2023-02-18T22:32:35.048Z,81.75
2023-02-18T22:35:07.049Z,83.30
2023-02-18T22:37:35.744Z,88.68
2023-02-18T22:40:02.668Z,86.05
2023-02-18T22:42:29.611Z,83.75
2023-02-18T22:44:57.437Z,81.21
2023-02-18T22:47:24.340Z,78.72
2023-02-18T22:49:51.376Z,78.23
2023-02-18T22:52:18.261Z,78.87
2023-02-18T22:54:45.216Z,79.27
2023-02-18T22:57:12.137Z,78.58
2023-02-18T22:59:39.077Z,79.48
2023-02-18T23:02:06.110Z,85.98
2023-02-18T23:04:33.132Z,87.47
2023-02-18T23:07:00.193Z,83.86
2023-02-18T23:09:27.118Z,82.22
2023-02-18T23:11:56.783Z,81.40
2023-02-18T23:14:24.379Z,79.79
2023-02-18T23:17:15.208Z,79.51
2023-02-18T23:19:43.749Z,80.83
2023-02-18T23:22:12.306Z,77.25
2023-02-18T23:24:42.098Z,76.97
2023-02-18T23:27:10.984Z,76.75
2023-02-18T23:29:38.566Z,78.74
2023-02-18T23:32:06.587Z,76.72
2023-02-18T23:34:33.923Z,76.17
2023-02-18T23:37:01.002Z,76.00
2023-02-18T23:39:29.685Z,78.83
2023-02-18T23:41:57.232Z,77.06
2023-02-18T23:44:26.342Z,76.47
2023-02-18T23:46:53.585Z,76.06
2023-02-18T23:49:23.460Z,78.96
2023-02-18T23:51:51.127Z,77.75
2023-02-18T23:54:18.005Z,77.12
2023-02-18T23:56:45.629Z,76.98
2023-02-18T23:59:13.370Z,77.04
